Salem, New Jersey
Current Conditions -  °F | °C
As of 6:51 AM on Thursday 23 Oct 2014 (Local Time) from KILG Reporting Station
Light Rain Light Rain  
Wind Chill: 52°   Ceiling: 3900
Heat Index: 52°   Visibility: 10mi
Dew Point: 45°   Wind: 15mph
Humidity: 77%   Direction: 320°NW
Pressure: 29.8"   Gusts: NA
Location:  39.57°N, 75.47°W
Report Text: KILG 231051Z 32013KT 10SM -RA OVC039 11/07 A2980 RMK AO2 RAB48 SLP090 P0000 T01110072
Loading
Personal Weather Stations






























Interactive Weather Map New forecast layout! Learn more

10-Day Weather Forecast

Advertisements
Track Severe Weather on mobile